Time;durP1;ratioP1;P1;durP2;ratioP2;P2;SDS_P1;SDS_P2;PMS_P1;PMS_P2;Temp;Humidity;BMP_temperature;BMP_pressure;BME280_temperature;BME280_humidity;BME280_pressure;Samples;Min_cycle;Max_cycle;Signal;HPM_P1;HPM_P2
2022/04/02 00:02:24;;;;;;;5.47;2.00;;;;;;;;;;5057191;28;20008;-67
2022/04/02 00:04:49;;;;;;;5.90;2.03;;;;;;;;;;5057598;28;20053;-67
2022/04/02 00:07:15;;;;;;;4.90;2.20;;;;;;;;;;5059171;28;20028;-67
2022/04/02 00:09:40;;;;;;;4.83;2.13;;;;;;;;;;5055320;28;20020;-67
2022/04/02 00:12:07;;;;;;;5.57;2.10;;;;;;;;;;5052315;28;20748;-67
2022/04/02 00:14:32;;;;;;;5.77;2.20;;;;;;;;;;5059741;28;20021;-67
2022/04/02 00:16:57;;;;;;;4.40;2.37;;;;;;;;;;5058695;28;20492;-67
2022/04/02 00:19:23;;;;;;;5.23;2.30;;;;;;;;;;5059564;28;20380;-67
2022/04/02 00:21:48;;;;;;;5.87;2.10;;;;;;;;;;5056575;28;20020;-67
2022/04/02 00:24:13;;;;;;;5.43;2.00;;;;;;;;;;5056075;28;20598;-67
2022/04/02 00:26:38;;;;;;;6.57;2.10;;;;;;;;;;5054154;28;20651;-67
2022/04/02 00:29:06;;;;;;;6.00;2.00;;;;;;;;;;5051572;28;20769;-67
2022/04/02 00:31:32;;;;;;;5.77;2.10;;;;;;;;;;5052831;28;20020;-67
2022/04/02 00:33:57;;;;;;;6.20;2.20;;;;;;;;;;5051366;28;20024;-67
2022/04/02 00:36:23;;;;;;;4.80;1.83;;;;;;;;;;5050797;28;20029;-67
2022/04/02 00:38:48;;;;;;;4.37;2.17;;;;;;;;;;5050569;28;20479;-67
2022/04/02 00:41:14;;;;;;;5.83;2.13;;;;;;;;;;5048341;28;20401;-67
2022/04/02 00:43:42;;;;;;;6.80;2.40;;;;;;;;;;5051094;28;20461;-67
2022/04/02 00:46:08;;;;;;;8.07;2.70;;;;;;;;;;5056330;28;20038;-67
2022/04/02 00:48:34;;;;;;;6.30;2.27;;;;;;;;;;5058420;28;20659;-67
2022/04/02 00:51:00;;;;;;;5.30;2.47;;;;;;;;;;5056963;28;20028;-67
2022/04/02 00:53:30;;;;;;;8.30;2.20;;;;;;;;;;5056737;28;20021;-67
2022/04/02 00:55:55;;;;;;;6.23;2.30;;;;;;;;;;5052265;28;20028;-67
2022/04/02 00:58:21;;;;;;;5.37;2.30;;;;;;;;;;5050687;28;20033;-67
2022/04/02 01:00:46;;;;;;;6.33;2.80;;;;;;;;;;5051563;28;20090;-67
2022/04/02 01:03:13;;;;;;;5.53;2.23;;;;;;;;;;5078744;22;20058;-71
2022/04/02 01:05:38;;;;;;;7.17;2.33;;;;;;;;;;5059620;28;20029;-71
2022/04/02 01:08:07;;;;;;;6.33;2.30;;;;;;;;;;5061075;28;20074;-71
2022/04/02 01:10:33;;;;;;;6.67;2.20;;;;;;;;;;5057297;28;20621;-71
2022/04/02 01:12:59;;;;;;;4.87;2.53;;;;;;;;;;5060464;28;20024;-71
2022/04/02 01:15:24;;;;;;;6.10;2.40;;;;;;;;;;5064575;28;20093;-71
2022/04/02 01:17:49;;;;;;;5.70;2.20;;;;;;;;;;5058534;28;20016;-71
2022/04/02 01:20:15;;;;;;;5.37;2.27;;;;;;;;;;5062930;28;20373;-71
2022/04/02 01:22:41;;;;;;;7.70;2.27;;;;;;;;;;5056679;28;20893;-71
2022/04/02 01:25:06;;;;;;;7.67;2.67;;;;;;;;;;5061928;28;20020;-71
2022/04/02 01:27:31;;;;;;;6.30;2.40;;;;;;;;;;5063539;28;20151;-71
2022/04/02 01:29:56;;;;;;;7.90;2.40;;;;;;;;;;5060056;28;20039;-71
2022/04/02 01:32:22;;;;;;;7.13;2.80;;;;;;;;;;5060539;28;20044;-71
2022/04/02 01:34:47;;;;;;;6.63;2.60;;;;;;;;;;5060532;28;20024;-71
2022/04/02 01:37:16;;;;;;;5.73;2.60;;;;;;;;;;5063725;28;20035;-71
2022/04/02 01:39:42;;;;;;;8.13;2.63;;;;;;;;;;5061901;28;20016;-71
2022/04/02 01:42:07;;;;;;;4.70;2.80;;;;;;;;;;5060327;28;20017;-71
2022/04/02 01:44:33;;;;;;;6.20;2.57;;;;;;;;;;5059640;28;20083;-71
2022/04/02 01:46:58;;;;;;;5.67;2.60;;;;;;;;;;5062719;28;20016;-71
2022/04/02 01:49:23;;;;;;;8.77;2.40;;;;;;;;;;5059933;28;20025;-71
2022/04/02 01:51:49;;;;;;;7.50;2.57;;;;;;;;;;5059492;28;20103;-71
2022/04/02 01:54:14;;;;;;;5.43;2.57;;;;;;;;;;5061529;28;20147;-71
2022/04/02 01:56:39;;;;;;;5.30;2.50;;;;;;;;;;5057191;28;20047;-71
2022/04/02 01:59:04;;;;;;;7.23;2.53;;;;;;;;;;5060400;28;20048;-71
2022/04/02 02:01:29;;;;;;;11.33;2.80;;;;;;;;;;5059047;28;20021;-71
2022/04/02 02:03:55;;;;;;;8.63;2.97;;;;;;;;;;5057779;28;20125;-70
2022/04/02 02:06:20;;;;;;;6.90;2.97;;;;;;;;;;5058498;28;20180;-71
2022/04/02 02:08:45;;;;;;;7.70;2.70;;;;;;;;;;5059656;28;20016;-71
2022/04/02 02:11:10;;;;;;;5.93;2.60;;;;;;;;;;5055261;28;20497;-71
2022/04/02 02:13:36;;;;;;;8.43;2.60;;;;;;;;;;5062653;28;20575;-71
2022/04/02 02:16:01;;;;;;;6.73;2.57;;;;;;;;;;5060553;28;20059;-71
2022/04/02 02:18:26;;;;;;;7.43;2.40;;;;;;;;;;5061453;28;20028;-71
2022/04/02 02:20:51;;;;;;;5.40;2.23;;;;;;;;;;5058349;28;20025;-71
2022/04/02 02:23:16;;;;;;;9.83;2.70;;;;;;;;;;5057954;28;20044;-71
2022/04/02 02:25:42;;;;;;;8.67;3.10;;;;;;;;;;5059420;28;20420;-71
2022/04/02 02:28:07;;;;;;;10.03;3.20;;;;;;;;;;5059814;28;20043;-71
2022/04/02 02:30:32;;;;;;;6.53;2.53;;;;;;;;;;5058517;28;20069;-69
2022/04/02 02:35:51;;;;;;;10.60;2.97;;;;;;;;;;5058930;28;20039;-70
2022/04/02 02:38:19;;;;;;;9.00;2.90;;;;;;;;;;5057398;28;20031;-70
2022/04/02 02:40:44;;;;;;;6.17;2.70;;;;;;;;;;5052680;28;20480;-70
2022/04/02 02:43:10;;;;;;;10.00;3.33;;;;;;;;;;5062564;28;20031;-71
2022/04/02 02:45:35;;;;;;;5.87;2.80;;;;;;;;;;5058831;28;20135;-71
2022/04/02 02:48:01;;;;;;;6.20;2.87;;;;;;;;;;5060112;28;20060;-71
2022/04/02 02:50:27;;;;;;;8.57;2.90;;;;;;;;;;5059446;28;20036;-71
2022/04/02 02:52:53;;;;;;;10.40;2.90;;;;;;;;;;5063145;28;20024;-71
2022/04/02 02:55:18;;;;;;;6.53;2.70;;;;;;;;;;5063424;28;20102;-71
2022/04/02 02:57:44;;;;;;;8.70;2.90;;;;;;;;;;5063069;28;20036;-71
2022/04/02 03:00:10;;;;;;;6.87;2.73;;;;;;;;;;5045780;28;20020;-70
2022/04/02 03:02:38;;;;;;;7.27;2.80;;;;;;;;;;5063924;28;20093;-71
2022/04/02 03:05:06;;;;;;;5.97;2.97;;;;;;;;;;5069610;28;20052;-70
2022/04/02 03:07:38;;;;;;;5.80;2.87;;;;;;;;;;5062848;28;20036;-70
2022/04/02 03:10:04;;;;;;;6.83;2.80;;;;;;;;;;5061755;28;20198;-70
2022/04/02 03:12:29;;;;;;;8.10;2.97;;;;;;;;;;5064707;28;20049;-71
2022/04/02 03:14:54;;;;;;;6.20;3.20;;;;;;;;;;5062680;28;20051;-71
2022/04/02 03:17:20;;;;;;;7.97;3.20;;;;;;;;;;5063597;28;20357;-70
2022/04/02 03:19:45;;;;;;;7.70;3.10;;;;;;;;;;5065838;28;20404;-70
2022/04/02 03:22:10;;;;;;;5.73;3.13;;;;;;;;;;5058846;28;20028;-70
2022/04/02 03:24:35;;;;;;;7.37;3.40;;;;;;;;;;5062652;28;20028;-71
2022/04/02 03:27:01;;;;;;;6.97;3.07;;;;;;;;;;5061494;28;20021;-71
2022/04/02 03:29:28;;;;;;;8.97;3.00;;;;;;;;;;5061937;28;20649;-71
2022/04/02 03:31:53;;;;;;;8.33;3.43;;;;;;;;;;5059367;28;20021;-71
2022/04/02 03:34:19;;;;;;;6.90;3.07;;;;;;;;;;5066613;28;20094;-71
2022/04/02 03:36:44;;;;;;;6.40;2.90;;;;;;;;;;5061750;28;20048;-71
2022/04/02 03:39:10;;;;;;;9.37;3.40;;;;;;;;;;5063184;28;20051;-71
2022/04/02 03:41:35;;;;;;;5.87;3.07;;;;;;;;;;5064061;28;20020;-72
2022/04/02 03:44:00;;;;;;;7.50;3.43;;;;;;;;;;5064301;28;20108;-71
2022/04/02 03:49:09;;;;;;;6.83;3.33;;;;;;;;;;5061502;28;20028;-71
2022/04/02 03:51:34;;;;;;;7.10;3.07;;;;;;;;;;5063401;28;20028;-71
2022/04/02 03:54:00;;;;;;;8.50;3.27;;;;;;;;;;5062066;28;20020;-70
2022/04/02 03:56:25;;;;;;;9.30;3.47;;;;;;;;;;5064102;28;20032;-71
2022/04/02 03:58:51;;;;;;;6.37;3.17;;;;;;;;;;5062374;28;20020;-70
2022/04/02 04:01:16;;;;;;;8.40;3.50;;;;;;;;;;5063365;28;20593;-70
2022/04/02 04:03:41;;;;;;;9.83;3.77;;;;;;;;;;5062639;28;20093;-71
2022/04/02 04:06:06;;;;;;;9.90;3.40;;;;;;;;;;5060389;28;20093;-70
2022/04/02 04:08:32;;;;;;;8.03;3.57;;;;;;;;;;5061727;28;20028;-70
2022/04/02 04:10:57;;;;;;;9.07;3.10;;;;;;;;;;5062500;28;20042;-70
2022/04/02 04:13:23;;;;;;;14.37;3.67;;;;;;;;;;5067218;28;20111;-71
2022/04/02 04:15:48;;;;;;;8.80;3.67;;;;;;;;;;5059167;28;20032;-70
2022/04/02 04:18:13;;;;;;;6.60;3.50;;;;;;;;;;5060627;28;20428;-71
2022/04/02 04:20:39;;;;;;;9.13;3.47;;;;;;;;;;5059940;28;20519;-71
2022/04/02 04:23:04;;;;;;;6.03;3.20;;;;;;;;;;5061827;28;20017;-71
2022/04/02 04:25:29;;;;;;;8.13;3.73;;;;;;;;;;5061206;28;20505;-71
2022/04/02 04:27:54;;;;;;;8.43;3.53;;;;;;;;;;5062049;28;20039;-70
2022/04/02 04:30:19;;;;;;;9.43;3.50;;;;;;;;;;5059125;28;20037;-71
2022/04/02 04:32:45;;;;;;;8.03;3.50;;;;;;;;;;5062813;28;20074;-71
2022/04/02 04:35:10;;;;;;;10.17;3.80;;;;;;;;;;5060600;28;20040;-71
2022/04/02 04:37:36;;;;;;;10.50;3.70;;;;;;;;;;5061086;28;20097;-71
2022/04/02 04:40:01;;;;;;;8.90;4.10;;;;;;;;;;5060298;28;20076;-71
2022/04/02 04:42:26;;;;;;;8.23;3.80;;;;;;;;;;5061539;28;20091;-71
2022/04/02 04:44:51;;;;;;;9.10;3.60;;;;;;;;;;5060009;28;20425;-71
2022/04/02 04:47:16;;;;;;;13.50;4.37;;;;;;;;;;5060625;28;20034;-71
2022/04/02 04:49:42;;;;;;;9.03;3.60;;;;;;;;;;5062295;28;20422;-71
2022/04/02 04:52:07;;;;;;;9.03;3.73;;;;;;;;;;5058245;28;20499;-71
2022/04/02 04:54:32;;;;;;;8.03;3.80;;;;;;;;;;5061298;28;20515;-70
2022/04/02 04:56:57;;;;;;;9.90;4.03;;;;;;;;;;5059344;28;20051;-71
2022/04/02 04:59:23;;;;;;;9.10;4.30;;;;;;;;;;5062535;28;20028;-71
2022/04/02 05:01:48;;;;;;;8.90;3.63;;;;;;;;;;5060425;28;20032;-70
2022/04/02 05:04:13;;;;;;;7.60;3.77;;;;;;;;;;5060432;28;20074;-71
2022/04/02 05:06:39;;;;;;;9.90;3.73;;;;;;;;;;5054157;28;20078;-71
2022/04/02 05:09:05;;;;;;;9.07;4.13;;;;;;;;;;5046518;28;20028;-71
2022/04/02 05:11:30;;;;;;;8.07;3.77;;;;;;;;;;5059089;28;20025;-71
2022/04/02 05:13:56;;;;;;;9.13;3.80;;;;;;;;;;5059949;28;20071;-71
2022/04/02 05:16:23;;;;;;;12.57;4.43;;;;;;;;;;5063501;28;20099;-71
2022/04/02 05:18:48;;;;;;;7.77;4.10;;;;;;;;;;5056178;28;20009;-71
2022/04/02 05:21:13;;;;;;;10.10;5.00;;;;;;;;;;5059381;28;20094;-71
2022/04/02 05:23:39;;;;;;;10.83;4.17;;;;;;;;;;5060985;28;20023;-71
2022/04/02 05:26:04;;;;;;;9.47;4.40;;;;;;;;;;5043338;28;20020;-71
2022/04/02 05:28:29;;;;;;;9.00;4.27;;;;;;;;;;5041684;28;20112;-71
2022/04/02 05:30:54;;;;;;;8.40;4.10;;;;;;;;;;5058923;28;20059;-71
2022/04/02 05:33:21;;;;;;;12.90;5.20;;;;;;;;;;5060291;28;20044;-71
2022/04/02 05:35:46;;;;;;;8.23;4.17;;;;;;;;;;5059884;28;20031;-71
2022/04/02 05:38:11;;;;;;;11.37;5.27;;;;;;;;;;5059944;28;20566;-71
2022/04/02 05:40:38;;;;;;;9.63;4.50;;;;;;;;;;5060289;28;20024;-71
2022/04/02 05:43:03;;;;;;;10.90;4.83;;;;;;;;;;5059550;28;20016;-71
2022/04/02 05:45:28;;;;;;;8.97;4.80;;;;;;;;;;5057738;28;20040;-71
2022/04/02 05:47:54;;;;;;;8.20;4.80;;;;;;;;;;5042444;28;20020;-71
2022/04/02 05:50:21;;;;;;;9.87;3.90;;;;;;;;;;5058978;28;20115;-73
2022/04/02 05:52:49;;;;;;;8.37;4.20;;;;;;;;;;5060250;28;20060;-71
2022/04/02 05:55:14;;;;;;;12.50;4.50;;;;;;;;;;5062480;28;20492;-71
2022/04/02 05:57:39;;;;;;;8.30;3.93;;;;;;;;;;5059518;28;20073;-71
2022/04/02 06:00:06;;;;;;;11.10;4.67;;;;;;;;;;5060907;28;20051;-71
2022/04/02 06:02:31;;;;;;;9.13;4.50;;;;;;;;;;5060005;28;20032;-71
2022/04/02 06:04:56;;;;;;;11.87;4.43;;;;;;;;;;5040136;28;20582;-71
2022/04/02 06:07:22;;;;;;;10.47;4.17;;;;;;;;;;5057913;28;20158;-71
2022/04/02 06:09:47;;;;;;;11.37;4.37;;;;;;;;;;5058243;28;20043;-71
2022/04/02 06:12:12;;;;;;;15.10;5.30;;;;;;;;;;5057376;28;20123;-71
2022/04/02 06:14:38;;;;;;;10.17;4.43;;;;;;;;;;5059999;28;20146;-71
2022/04/02 06:17:03;;;;;;;10.13;4.47;;;;;;;;;;5058426;28;20036;-71
2022/04/02 06:19:28;;;;;;;8.70;4.03;;;;;;;;;;5060128;28;20012;-71
2022/04/02 06:21:53;;;;;;;9.33;4.10;;;;;;;;;;5057208;28;20028;-71
2022/04/02 06:24:19;;;;;;;8.80;4.30;;;;;;;;;;5060393;28;20036;-71
2022/04/02 06:26:44;;;;;;;8.40;4.17;;;;;;;;;;5063594;28;20024;-71
2022/04/02 06:29:09;;;;;;;10.67;4.53;;;;;;;;;;5063413;28;20012;-71
2022/04/02 06:31:35;;;;;;;8.70;4.20;;;;;;;;;;5044889;28;20020;-71
2022/04/02 06:34:00;;;;;;;8.70;4.07;;;;;;;;;;5066393;28;20086;-71
2022/04/02 06:36:26;;;;;;;8.67;4.37;;;;;;;;;;5060314;28;20488;-71
2022/04/02 06:38:52;;;;;;;9.50;4.10;;;;;;;;;;5065856;28;20032;-71
2022/04/02 06:41:17;;;;;;;12.83;4.80;;;;;;;;;;5062249;28;20016;-71
2022/04/02 06:43:42;;;;;;;10.70;4.47;;;;;;;;;;5063979;28;20044;-71
2022/04/02 06:46:07;;;;;;;10.50;4.07;;;;;;;;;;5063288;28;20022;-71
2022/04/02 06:48:33;;;;;;;9.10;4.23;;;;;;;;;;5045834;28;20020;-71
2022/04/02 06:50:58;;;;;;;9.47;3.80;;;;;;;;;;5061616;28;20021;-71
2022/04/02 06:53:23;;;;;;;9.70;4.33;;;;;;;;;;5063799;28;20028;-71
2022/04/02 06:55:48;;;;;;;9.87;3.57;;;;;;;;;;5064498;28;20032;-71
2022/04/02 06:58:33;;;;;;;7.10;3.97;;;;;;;;;;5056365;28;20043;-71
2022/04/02 07:00:58;;;;;;;7.93;3.80;;;;;;;;;;5063983;28;20030;-71
2022/04/02 07:03:23;;;;;;;10.00;3.93;;;;;;;;;;5063542;28;20044;-71
2022/04/02 07:05:49;;;;;;;7.80;3.80;;;;;;;;;;5062709;28;20735;-71
2022/04/02 07:08:14;;;;;;;10.17;3.87;;;;;;;;;;5066402;28;20092;-71
2022/04/02 07:10:39;;;;;;;8.60;3.90;;;;;;;;;;5057442;28;20107;-71
2022/04/02 07:13:04;;;;;;;8.90;3.73;;;;;;;;;;5061980;28;20064;-71
2022/04/02 07:15:30;;;;;;;7.63;3.70;;;;;;;;;;5062818;28;20020;-71
2022/04/02 07:17:55;;;;;;;11.50;4.00;;;;;;;;;;5048020;28;20131;-70
2022/04/02 07:20:25;;;;;;;6.93;3.83;;;;;;;;;;5066910;28;20245;-71
2022/04/02 07:22:51;;;;;;;8.83;3.33;;;;;;;;;;5061530;28;20074;-71
2022/04/02 07:25:18;;;;;;;8.83;3.60;;;;;;;;;;5062242;28;20019;-71
2022/04/02 07:27:44;;;;;;;7.90;3.47;;;;;;;;;;5063108;28;20021;-71
2022/04/02 07:30:11;;;;;;;8.57;3.60;;;;;;;;;;5061544;28;20035;-71
2022/04/02 07:32:36;;;;;;;6.07;2.90;;;;;;;;;;5066581;28;20040;-71
2022/04/02 07:35:01;;;;;;;5.87;2.57;;;;;;;;;;5062281;28;20070;-71
2022/04/02 07:37:55;;;;;;;8.33;4.00;;;;;;;;;;5061956;28;20020;-71
2022/04/02 07:40:25;;;;;;;7.00;2.47;;;;;;;;;;4979829;28;20034;-71
2022/04/02 07:43:09;;;;;;;6.87;2.67;;;;;;;;;;4979159;28;20022;-71
2022/04/02 07:45:40;;;;;;;7.40;2.97;;;;;;;;;;4975475;28;20034;-71
2022/04/02 07:48:07;;;;;;;8.03;2.67;;;;;;;;;;4980727;28;20458;-71
2022/04/02 07:50:32;;;;;;;6.73;2.47;;;;;;;;;;4983549;28;20026;-71
2022/04/02 07:52:59;;;;;;;6.47;2.60;;;;;;;;;;4983488;28;20375;-71
2022/04/02 07:55:24;;;;;;;6.60;2.37;;;;;;;;;;4980020;28;20023;-71
2022/04/02 07:57:52;;;;;;;5.80;2.33;;;;;;;;;;4980621;28;20038;-71
2022/04/02 08:00:19;;;;;;;4.97;2.13;;;;;;;;;;4978074;28;20026;-71
2022/04/02 08:02:46;;;;;;;5.80;2.27;;;;;;;;;;4980502;28;20728;-71
2022/04/02 08:05:15;;;;;;;5.80;1.50;;;;;;;;;;4979195;28;20193;-71
2022/04/02 08:07:44;;;;;;;6.87;2.13;;;;;;;;;;4982076;28;20026;-71
2022/04/02 08:10:13;;;;;;;3.70;1.43;;;;;;;;;;4979936;28;20038;-71
2022/04/02 08:12:39;;;;;;;4.53;1.80;;;;;;;;;;4981468;28;20034;-71
2022/04/02 08:15:05;;;;;;;5.37;1.97;;;;;;;;;;4978621;28;20081;-71
2022/04/02 08:17:31;;;;;;;4.60;2.10;;;;;;;;;;5044209;28;20139;-71
2022/04/02 08:19:57;;;;;;;4.70;1.73;;;;;;;;;;5056683;28;20100;-71
2022/04/02 08:22:23;;;;;;;5.60;2.20;;;;;;;;;;5060326;28;20016;-71
2022/04/02 08:24:48;;;;;;;7.93;1.80;;;;;;;;;;5059901;28;20033;-71
2022/04/02 08:27:22;;;;;;;3.40;1.50;;;;;;;;;;5060758;28;20027;-72
2022/04/02 08:29:55;;;;;;;3.73;1.30;;;;;;;;;;5061641;28;20027;-71
2022/04/02 08:32:39;;;;;;;4.73;2.10;;;;;;;;;;5063760;28;20111;-71
2022/04/02 08:35:10;;;;;;;5.93;2.40;;;;;;;;;;5058905;28;20388;-71
2022/04/02 08:37:54;;;;;;;6.40;2.95;;;;;;;;;;5060664;28;20480;-72
2022/04/02 08:40:44;;;;;;;6.27;2.43;;;;;;;;;;5058609;28;20052;-71
2022/04/02 08:43:09;;;;;;;3.87;1.50;;;;;;;;;;5060799;28;20388;-71
2022/04/02 08:45:40;;;;;;;9.77;4.37;;;;;;;;;;5054686;28;20025;-71
2022/04/02 08:48:18;;;;;;;5.30;2.17;;;;;;;;;;5053807;28;20063;-71
2022/04/02 08:50:47;;;;;;;4.83;2.10;;;;;;;;;;5054553;28;20508;-71
2022/04/02 08:53:17;;;;;;;6.67;1.90;;;;;;;;;;5058767;28;20093;-71
2022/04/02 08:55:45;;;;;;;5.33;2.40;;;;;;;;;;5058154;28;20033;-71
2022/04/02 08:58:11;;;;;;;6.67;2.90;;;;;;;;;;5051770;28;20103;-71
2022/04/02 09:00:41;;;;;;;4.20;1.77;;;;;;;;;;5057413;28;20135;-71
2022/04/02 09:03:15;;;;;;;5.50;2.03;;;;;;;;;;5046629;28;20069;-71
2022/04/02 09:05:59;;;;;;;9.30;3.80;;;;;;;;;;5055212;28;20024;-72
2022/04/02 09:08:26;;;;;;;2.53;1.20;;;;;;;;;;5059095;28;20081;-71
2022/04/02 09:11:13;;;;;;;7.00;1.70;;;;;;;8.61;50.88;-19391.50;5113161;27;20396;-68
2022/04/02 09:14:26;;;;;;;7.17;2.77;;;;;;;9.45;53.90;-19413.13;5115434;27;20122;-68
2022/04/02 09:17:27;;;;;;;3.73;1.70;;;;;;;9.49;49.95;-19414.31;5029628;28;20051;-68
2022/04/02 09:20:21;;;;;;;8.60;2.60;;;;;;;10.14;50.73;-19431.16;5032664;28;20668;-68
2022/04/02 09:22:49;;;;;;;5.17;1.63;;;;;;;10.64;48.81;-19443.94;5013011;28;20045;-69
2022/04/02 09:25:42;;;;;;;4.83;1.83;;;;;;;10.02;48.15;-19427.88;5034401;28;20126;-69
2022/04/02 09:28:10;;;;;;;5.03;2.00;;;;;;;10.07;48.09;-19429.19;5032352;28;20177;-68
2022/04/02 09:31:13;;;;;;;4.43;2.40;;;;;;;10.51;49.62;-19440.78;5031446;28;20068;-69
2022/04/02 09:33:47;;;;;;;4.27;1.80;;;;;;;9.68;46.59;-19419.19;5036006;28;20048;-68
2022/04/02 09:36:18;;;;;;;3.40;1.40;;;;;;;9.12;46.92;-19404.56;5033115;28;20079;-68
2022/04/02 09:38:43;;;;;;;3.20;1.42;;;;;;;9.07;47.02;-19403.38;5049111;28;20710;-68
2022/04/02 09:41:22;;;;;;;3.60;1.40;;;;;;;9.32;47.00;-19409.84;5041068;28;20140;-68
2022/04/02 09:44:05;;;;;;;4.13;1.50;;;;;;;8.55;47.61;-19389.78;5044144;28;20052;-68
2022/04/02 09:46:49;;;;;;;5.43;1.97;;;;;;;8.75;49.49;-19395.06;5033484;28;20413;-68
2022/04/02 09:49:46;;;;;;;3.03;1.37;;;;;;;9.04;48.47;-19402.59;5030313;28;20583;-68
2022/04/02 09:52:20;;;;;;;4.93;1.83;;;;;;;9.67;47.70;-19419.06;5049576;28;20165;-68
2022/04/02 09:55:01;;;;;;;3.30;1.40;;;;;;;10.39;45.46;-19437.50;5044070;28;20584;-69
2022/04/02 09:57:44;;;;;;;5.23;1.60;;;;;;;9.84;42.09;-19423.41;5048299;28;20554;-69
2022/04/02 10:00:10;;;;;;;3.07;1.30;;;;;;;9.98;44.31;-19427.09;5051678;28;20032;-69
2022/04/02 10:02:57;;;;;;;3.40;1.40;;;;;;;10.68;45.85;-19445.13;5049865;28;20036;-69
2022/04/02 10:05:31;;;;;;;4.07;1.50;;;;;;;11.25;44.01;-19459.72;5068561;28;20545;-69
2022/04/02 10:08:05;;;;;;;3.17;1.67;;;;;;;11.65;43.93;-19470.13;5067660;28;20171;-69
2022/04/02 10:10:31;;;;;;;3.90;1.48;;;;;;;11.12;44.02;-19456.56;5067520;28;20048;-69
2022/04/02 10:33:26;;;;;;;4.70;1.73;;;;;;;8.51;100.00;60484.78;5070217;28;20107;-69
2022/04/02 10:35:54;;;;;;;6.23;1.80;;;;;;;-145.18;100.00;60484.78;5076270;28;20139;-69
2022/04/02 10:38:35;;;;;;;3.77;2.00;;;;;;;-145.18;100.00;60484.78;5075576;28;20056;-69
2022/04/02 10:41:08;;;;;;;3.40;1.63;;;;;;;-145.18;100.00;60484.78;5075307;28;20284;-69
2022/04/02 10:43:52;;;;;;;4.20;1.70;;;;;;;-145.18;100.00;60484.78;5072069;28;20036;-69
2022/04/02 10:46:21;;;;;;;4.07;1.63;;;;;;;-145.18;100.00;60484.78;5079902;28;20114;-69
2022/04/02 10:49:03;;;;;;;3.50;1.57;;;;;;;7.41;50.82;-19360.38;5076626;28;20450;-69
2022/04/02 10:51:30;;;;;;;3.88;1.60;;;;;;;6.84;53.16;-19345.56;5085714;28;20077;-69
2022/04/02 10:53:58;;;;;;;5.20;1.70;;;;;;;6.59;55.02;-19339.09;5088597;28;20403;-68
2022/04/02 10:56:32;;;;;;;2.30;1.20;;;;;;;6.77;55.16;-19343.72;5087586;28;20038;-69
2022/04/02 10:58:58;;;;;;;3.57;1.47;;;;;;;7.03;54.44;-19350.59;5087182;28;20500;-68
2022/04/02 11:01:24;;;;;;;5.93;1.90;;;;;;;6.89;56.33;-19346.75;5082206;28;20081;-68
2022/04/02 11:03:55;;;;;;;5.60;2.20;;;;;;;7.61;58.26;-19365.63;5082796;28;20035;-68
2022/04/02 11:06:49;;;;;;;3.80;1.57;;;;;;;7.40;50.95;-19360.09;5089620;28;20032;-68
2022/04/02 11:09:39;;;;;;;6.27;1.53;;;;;;;6.44;50.67;-19335.25;5084888;28;20032;-68
2022/04/02 11:12:17;;;;;;;3.57;1.23;;;;;;;6.26;50.32;-19330.50;5075163;28;20036;-68
2022/04/02 11:14:49;;;;;;;3.40;1.40;;;;;;;6.50;49.13;-19336.59;5087282;28;20024;-68
2022/04/02 11:17:31;;;;;;;4.13;1.50;;;;;;;7.44;50.66;-19361.16;5082737;28;20499;-68
2022/04/02 11:20:03;;;;;;;8.85;1.60;;;;;;;8.06;50.21;-19377.25;5087670;28;20119;-68
2022/04/02 11:22:35;;;;;;;5.93;1.30;;;;;;;7.84;47.79;-19371.44;5088348;28;20040;-68
2022/04/02 11:25:03;;;;;;;;;;;;;;;7.45;47.87;-19361.41;5066359;28;20032;-68
2022/04/02 11:27:29;;;;;;;12.37;2.17;;;;;;;7.21;49.03;-19355.06;5087611;28;19922;-68
2022/04/02 11:30:02;;;;;;;5.07;1.60;;;;;;;7.11;48.38;-19352.44;5086815;28;20091;-69
2022/04/02 11:32:35;;;;;;;3.50;1.50;;;;;;;7.52;50.01;-19363.28;5081276;28;20657;-69
2022/04/02 11:35:09;;;;;;;3.20;1.23;;;;;;;7.47;48.04;-19361.94;5082539;28;20563;-69
2022/04/02 11:37:54;;;;;;;2.40;1.23;;;;;;;8.13;48.36;-19379.09;5083602;28;20418;-68
2022/04/02 11:40:20;;;;;;;3.43;1.40;;;;;;;7.97;45.22;-19374.88;5088707;28;20046;-68
2022/04/02 11:42:47;;;;;;;2.37;1.10;;;;;;;7.68;46.97;-19367.22;5084584;28;20383;-68
2022/04/02 11:45:19;;;;;;;2.63;1.20;;;;;;;7.12;47.21;-19352.69;5083281;28;20493;-69
2022/04/02 11:47:48;;;;;;;4.28;1.50;;;;;;;6.74;49.45;-19343.06;5088162;28;20243;-68
2022/04/02 11:50:24;;;;;;;5.93;1.60;;;;;;;7.17;52.05;-19354.03;5082696;28;20036;-68
2022/04/02 11:52:59;;;;;;;3.70;1.50;;;;;;;7.55;48.24;-19364.06;5084749;28;20695;-68
2022/04/02 11:55:27;;;;;;;2.47;1.10;;;;;;;7.71;44.55;-19368.16;5080604;28;20518;-68
2022/04/02 11:57:58;;;;;;;2.97;1.23;;;;;;;8.16;44.81;-19379.91;5082166;28;20028;-68
2022/04/02 12:00:27;;;;;;;3.33;1.53;;;;;;;8.39;44.40;-19385.84;5081233;28;20024;-69
2022/04/02 12:02:53;;;;;;;3.13;1.37;;;;;;;8.29;42.82;-19383.19;5081633;28;20042;-69
2022/04/02 12:05:22;;;;;;;2.13;1.00;;;;;;;7.90;42.45;-19373.16;5081489;28;20039;-69
2022/04/02 12:07:51;;;;;;;4.13;1.47;;;;;;;7.94;43.13;-19374.09;5078503;28;20476;-69
2022/04/02 12:10:25;;;;;;;4.17;1.77;;;;;;;8.24;45.45;-19381.88;5084499;28;20770;-69
2022/04/02 12:12:53;;;;;;;4.80;1.40;;;;;;;8.91;44.33;-19399.16;5080773;28;20035;-68
2022/04/02 12:15:19;;;;;;;3.20;1.47;;;;;;;9.34;42.12;-19410.50;5083265;28;20093;-69
2022/04/02 12:18:07;;;;;;;2.43;1.00;;;;;;;8.40;40.54;-19385.97;5082857;28;20031;-69
2022/04/02 12:20:37;;;;;;;4.27;1.70;;;;;;;8.18;43.70;-19380.44;5078767;28;20502;-68
2022/04/02 12:23:11;;;;;;;2.60;1.30;;;;;;;7.91;46.02;-19373.31;5057495;28;20027;-68
2022/04/02 12:25:40;;;;;;;6.57;1.50;;;;;;;7.91;45.24;-19373.31;5083422;28;20028;-68
2022/04/02 12:28:11;;;;;;;3.50;1.63;;;;;;;8.20;43.48;-19380.81;5088422;28;20066;-68
2022/04/02 12:30:37;;;;;;;3.60;1.87;;;;;;;8.54;45.60;-19389.66;5084807;28;20077;-69
2022/04/02 12:33:35;;;;;;;5.23;1.87;;;;;;;7.77;46.18;-19369.59;5083932;28;20704;-69
2022/04/02 12:36:09;;;;;;;4.40;1.70;;;;;;;7.02;48.17;-19350.31;5081937;28;20133;-69
2022/04/02 12:38:37;;;;;;;4.13;2.00;;;;;;;7.57;50.58;-19364.47;5086077;28;20105;-70
2022/04/02 12:41:04;;;;;;;5.23;1.80;;;;;;;8.65;48.16;-19392.56;5081435;28;20036;-69
2022/04/02 12:43:38;;;;;;;5.13;2.20;;;;;;;8.80;49.22;-19396.53;5081633;28;20032;-70
2022/04/02 12:46:04;;;;;;;4.17;1.90;;;;;;;9.98;46.91;-19427.09;5084922;28;20048;-71
2022/04/02 12:48:41;;;;;;;4.30;1.80;;;;;;;9.40;46.21;-19412.06;5080322;28;20732;-71
2022/04/02 12:51:12;;;;;;;5.10;1.73;;;;;;;10.19;48.59;-19432.50;5080928;28;20093;-70
2022/04/02 12:53:43;;;;;;;4.97;1.90;;;;;;;9.83;46.41;-19423.13;5085531;28;20024;-71
2022/04/02 12:56:15;;;;;;;5.13;1.70;;;;;;;10.09;47.49;-19429.84;5083804;28;20092;-71
2022/04/02 12:58:43;;;;;;;3.73;1.70;;;;;;;10.85;46.60;-19449.47;5086065;28;20464;-71
2022/04/02 13:01:10;;;;;;;4.27;1.80;;;;;;;10.27;45.20;-19434.59;5083502;28;20138;-71
2022/04/02 13:03:42;;;;;;;5.17;1.70;;;;;;;9.67;46.63;-19419.06;5067381;28;20074;-71
2022/04/02 13:06:16;;;;;;;5.90;1.83;;;;;;;10.33;46.75;-19436.03;5084294;28;20067;-71
2022/04/02 13:08:52;;;;;;;5.93;2.00;;;;;;;11.03;44.47;-19454.22;5078745;28;20400;-71
2022/04/02 13:11:37;;;;;;;5.78;1.65;;;;;;;10.89;43.09;-19450.53;5074586;28;20037;-72
2022/04/02 13:14:12;;;;;;;3.83;1.70;;;;;;;11.09;43.89;-19455.78;5078689;28;20786;-71
2022/04/02 13:16:38;;;;;;;4.20;1.95;;;;;;;10.52;42.69;-19440.91;5070182;28;20036;-71
2022/04/02 13:21:50;;;;;;;4.57;2.10;;;;;;;8.92;47.20;-19399.41;5083850;28;20039;-70
2022/04/02 13:24:27;;;;;;;4.40;1.90;;;;;;;8.19;47.93;-19380.56;5066336;28;20031;-70
2022/04/02 13:27:09;;;;;;;4.60;1.70;;;;;;;7.88;51.03;-19372.50;5086342;28;20052;-70
2022/04/02 13:29:53;;;;;;;;;;;;;;;7.36;52.55;-19359.03;5070440;28;20523;-69
2022/04/02 13:32:29;;;;;;;4.43;1.83;;;;;;;6.70;59.50;-19341.88;5079407;28;19957;-70
2022/04/02 13:35:04;;;;;;;3.93;2.10;;;;;;;6.64;65.25;-19340.28;5086502;28;20759;-69
2022/04/02 13:37:54;;;;;;;5.10;2.20;;;;;;;6.75;66.40;-19343.19;5083139;28;20027;-69
2022/04/02 13:40:19;;;;;;;7.17;2.77;;;;;;;6.82;67.29;-19345.03;5085662;28;20032;-69
2022/04/02 13:42:55;;;;;;;4.87;2.30;;;;;;;6.56;65.68;-19338.31;5088612;28;20032;-69
2022/04/02 13:45:24;;;;;;;4.67;1.93;;;;;;;6.50;67.62;-19336.59;5085952;28;20042;-69
2022/04/02 13:47:58;;;;;;;5.00;2.20;;;;;;;6.26;68.38;-19330.50;5081779;28;20750;-69
2022/04/02 13:50:27;;;;;;;5.30;2.00;;;;;;;6.02;69.17;-19324.16;5084101;28;20115;-69
2022/04/02 13:58:10;;;;;;;4.73;2.13;;;;;;;9.61;54.43;-19417.34;4318336;22;20057;-70
2022/04/02 14:00:37;;;;;;;;;;;;;;;10.25;45.72;-19433.94;5020744;28;20033;-71
2022/04/02 14:03:07;;;;;;;4.57;1.63;;;;;;;11.12;48.00;-19456.56;5024233;28;19960;-71
2022/04/02 14:05:37;;;;;;;2.80;1.50;;;;;;;10.80;44.13;-19448.16;5022660;28;20025;-71
2022/04/02 14:08:10;;;;;;;3.87;1.47;;;;;;;10.10;45.81;-19430.00;5030412;28;20053;-71
2022/04/02 14:10:37;;;;;;;3.47;1.43;;;;;;;8.72;45.15;-19394.41;5028497;28;20052;-72
2022/04/02 14:13:28;;;;;;;5.00;1.70;;;;;;;8.00;47.44;-19375.69;5026709;28;20120;-71
2022/04/02 14:15:56;;;;;;;3.47;1.65;;;;;;;7.99;48.29;-19375.28;5025826;28;20029;-71